Time;durP1;ratioP1;P1;durP2;ratioP2;P2;SDS_P1;SDS_P2;PMS_P1;PMS_P2;Temp;Humidity;BMP_temperature;BMP_pressure;BME280_temperature;BME280_humidity;BME280_pressure;Samples;Min_cycle;Max_cycle;Signal;HPM_P1;HPM_P2
2022/08/03 00:02:19;;;;;;;14.20;12.50;;;;;;;19.30;73.02;100643.02;104860;1268;109967;-77
2022/08/03 00:04:47;;;;;;;14.00;11.90;;;;;;;19.26;73.23;100642.35;104730;1270;100234;-76
2022/08/03 00:07:15;;;;;;;14.00;11.70;;;;;;;19.25;73.11;100637.90;104769;1270;138914;-77
2022/08/03 00:09:43;;;;;;;15.00;12.20;;;;;;;19.27;73.17;100641.05;104758;1268;95841;-77
2022/08/03 00:12:11;;;;;;;15.70;12.10;;;;;;;19.29;73.03;100640.73;104694;1268;139249;-74
2022/08/03 00:14:40;;;;;;;14.00;12.00;;;;;;;19.27;73.17;100639.44;104741;1268;110519;-75
2022/08/03 00:17:08;;;;;;;13.40;11.70;;;;;;;19.27;73.09;100639.42;104663;1268;139859;-76
2022/08/03 00:19:36;;;;;;;14.60;12.90;;;;;;;19.27;72.96;100639.43;104783;1268;109130;-77
2022/08/03 00:22:04;;;;;;;14.10;11.70;;;;;;;19.25;72.88;100639.88;104727;1270;95765;-75
2022/08/03 00:24:34;;;;;;;13.60;10.90;;;;;;;19.25;72.81;100642.77;104590;1271;139269;-76
2022/08/03 00:27:02;;;;;;;14.30;11.80;;;;;;;19.27;72.64;100641.56;104626;1271;109698;-75
2022/08/03 00:29:30;;;;;;;13.40;11.30;;;;;;;19.25;72.94;100645.28;104703;1268;139932;-76
2022/08/03 00:31:58;;;;;;;14.20;12.40;;;;;;;19.23;73.02;100644.17;104808;1268;108826;-76
2022/08/03 00:34:27;;;;;;;15.90;12.40;;;;;;;19.20;73.25;100645.36;104709;1269;95532;-76
2022/08/03 00:37:15;;;;;;;14.50;11.40;;;;;;;19.17;73.30;100643.04;104586;1271;139540;-76
2022/08/03 00:39:46;;;;;;;13.70;12.20;;;;;;;19.13;73.12;100644.17;104808;1268;109658;-77
2022/08/03 00:42:14;;;;;;;15.10;11.80;;;;;;;19.07;73.50;100643.63;104687;1268;140212;-76
2022/08/03 00:44:44;;;;;;;14.60;12.20;;;;;;;19.04;73.61;100647.56;104905;1268;109156;-76
2022/08/03 00:47:12;;;;;;;13.30;11.70;;;;;;;19.01;73.81;100646.66;104715;1268;139494;-76
2022/08/03 00:49:41;;;;;;;13.90;11.90;;;;;;;18.98;73.57;100647.57;104608;1268;236625;-74
2022/08/03 00:52:11;;;;;;;14.20;11.70;;;;;;;18.95;73.77;100646.14;104757;1268;109786;-74
2022/08/03 00:54:39;;;;;;;14.40;11.30;;;;;;;18.93;73.69;100646.99;104719;1268;139281;-76
2022/08/03 00:57:08;;;;;;;13.30;11.10;;;;;;;18.93;73.67;100648.38;104713;1268;108742;-76
2022/08/03 00:59:37;;;;;;;13.20;11.10;;;;;;;18.93;73.22;100649.13;104636;1269;139882;-76
2022/08/03 01:02:05;;;;;;;14.90;12.00;;;;;;;18.92;73.30;100649.38;104866;1268;95133;-76
2022/08/03 01:04:33;;;;;;;14.30;11.60;;;;;;;18.93;73.43;100650.19;104749;1268;109904;-76
2022/08/03 01:07:24;;;;;;;14.10;11.20;;;;;;;18.91;73.28;100651.38;104663;1268;139336;-76
2022/08/03 01:10:23;;;;;;;13.00;11.30;;;;;;;18.90;73.37;100650.36;104738;1268;108916;-75
2022/08/03 01:12:58;;;;;;;14.40;11.50;;;;;;;18.87;73.47;100646.15;104667;1268;139402;-75
2022/08/03 01:15:44;;;;;;;13.80;11.60;;;;;;;18.87;73.51;100645.81;104664;1270;95222;-74
2022/08/03 01:18:17;;;;;;;12.80;11.40;;;;;;;18.90;73.37;100649.66;104629;1268;139070;-76
2022/08/03 01:20:52;;;;;;;13.30;11.90;;;;;;;18.86;73.40;100651.98;104759;1268;98509;-74
2022/08/03 01:23:41;;;;;;;12.90;10.60;;;;;;;18.80;73.64;100651.39;104644;1268;139903;-76
2022/08/03 01:26:27;;;;;;;12.00;10.70;;;;;;;18.80;73.74;100649.44;104808;1268;95220;-74
2022/08/03 01:29:02;;;;;;;13.30;11.00;;;;;;;18.82;73.48;100647.70;104708;1268;139307;-75
2022/08/03 01:31:43;;;;;;;12.70;10.20;;;;;;;18.82;73.24;100647.73;104784;1268;108888;-76
2022/08/03 01:34:35;;;;;;;11.50;10.10;;;;;;;18.85;73.20;100646.42;104833;1268;98552;-76
2022/08/03 01:37:08;;;;;;;12.70;10.20;;;;;;;18.84;73.17;100646.13;104685;1268;139212;-75
2022/08/03 01:39:38;;;;;;;14.40;11.70;;;;;;;18.83;73.36;100646.75;104801;1268;95210;-76
2022/08/03 01:42:10;;;;;;;14.20;11.80;;;;;;;18.83;73.37;100645.85;104852;1268;139284;-76
2022/08/03 01:44:41;;;;;;;15.00;11.00;;;;;;;18.82;73.37;100650.58;104771;1268;109803;-76
2022/08/03 01:47:11;;;;;;;14.90;12.10;;;;;;;18.79;73.63;100652.20;104676;1268;139572;-76
2022/08/03 01:49:44;;;;;;;13.40;11.40;;;;;;;18.67;73.76;100650.16;104753;1266;109455;-76
2022/08/03 01:52:17;;;;;;;13.70;11.50;;;;;;;18.57;74.14;100641.58;104810;1268;95231;-74
2022/08/03 01:54:48;;;;;;;13.80;11.90;;;;;;;18.56;74.37;100642.48;104711;1266;139593;-75
2022/08/03 01:57:18;;;;;;;14.20;11.70;;;;;;;18.63;74.24;100639.45;104770;1268;109619;-75
2022/08/03 01:59:49;;;;;;;13.50;12.20;;;;;;;18.66;73.99;100636.54;104726;1268;139463;-76
2022/08/03 02:02:20;;;;;;;13.10;11.60;;;;;;;18.67;73.88;100633.24;104821;1268;107632;-76
2022/08/03 02:05:04;;;;;;;13.60;12.10;;;;;;;18.63;74.16;100629.88;104739;1268;139504;-76
2022/08/03 02:07:39;;;;;;;15.40;13.20;;;;;;;18.56;74.30;100626.00;104788;1268;96802;-77
2022/08/03 02:10:10;;;;;;;16.00;12.80;;;;;;;18.46;74.52;100626.14;104796;1268;109837;-76
2022/08/03 02:12:39;;;;;;;14.10;12.60;;;;;;;18.43;74.61;100630.13;104873;1268;139509;-77
2022/08/03 02:15:08;;;;;;;14.00;12.50;;;;;;;18.43;74.59;100629.74;104876;1268;107927;-77
2022/08/03 02:17:37;;;;;;;13.90;12.10;;;;;;;18.39;74.61;100623.70;104701;1268;139498;-76
2022/08/03 02:20:09;;;;;;;13.80;11.70;;;;;;;18.35;74.80;100623.70;104818;1268;95464;-77
2022/08/03 02:22:43;;;;;;;13.90;11.70;;;;;;;18.30;74.62;100623.09;104853;1268;109740;-76
2022/08/03 02:25:13;;;;;;;13.60;11.60;;;;;;;18.22;75.02;100619.38;104845;1268;139957;-76
2022/08/03 02:27:55;;;;;;;13.70;11.40;;;;;;;18.19;75.34;100621.69;104857;1268;109291;-76
2022/08/03 02:30:31;;;;;;;14.30;11.90;;;;;;;18.24;75.40;100622.17;104730;1268;139406;-76
2022/08/03 02:33:00;;;;;;;13.10;11.50;;;;;;;18.24;75.51;100623.59;104804;1268;95131;-76
2022/08/03 02:35:30;;;;;;;15.10;12.20;;;;;;;18.19;75.45;100622.06;104697;1266;139774;-74
2022/08/03 02:38:03;;;;;;;15.30;12.40;;;;;;;18.19;75.37;100624.60;104595;1270;99487;-76
2022/08/03 02:40:32;;;;;;;13.60;11.80;;;;;;;18.18;75.52;100624.64;104599;1269;108803;-76
2022/08/03 02:43:07;;;;;;;13.60;12.20;;;;;;;18.18;75.54;100623.35;104790;1268;139295;-75
2022/08/03 02:45:42;;;;;;;16.30;12.40;;;;;;;18.19;75.56;100627.25;105060;1268;95725;-76
2022/08/03 02:48:19;;;;;;;13.60;11.60;;;;;;;18.21;75.43;100630.23;104668;1268;139251;-76
2022/08/03 02:50:48;;;;;;;13.00;11.40;;;;;;;18.25;75.11;100631.26;104804;1267;99425;-76
2022/08/03 02:53:18;;;;;;;16.60;11.90;;;;;;;18.28;75.23;100632.38;104731;1268;139857;-75
2022/08/03 02:55:48;;;;;;;13.50;11.20;;;;;;;18.25;75.35;100633.96;104973;1268;95420;-75
2022/08/03 02:58:23;;;;;;;14.30;12.40;;;;;;;18.26;75.15;100634.83;104841;1268;95214;-75
2022/08/03 03:00:52;;;;;;;14.10;11.40;;;;;;;18.34;74.72;100633.31;104900;1268;139564;-76
2022/08/03 03:03:21;;;;;;;13.20;11.40;;;;;;;18.33;74.76;100635.67;104871;1268;99413;-75
2022/08/03 03:05:50;;;;;;;13.90;12.10;;;;;;;18.31;74.83;100636.00;105050;1268;139527;-75
2022/08/03 03:08:25;;;;;;;15.90;13.30;;;;;;;18.28;75.00;100637.75;105003;1268;95345;-75
2022/08/03 03:10:59;;;;;;;17.10;13.60;;;;;;;18.26;75.14;100635.38;104953;1268;139688;-74
2022/08/03 03:13:29;;;;;;;15.40;12.90;;;;;;;18.22;75.21;100635.91;104872;1268;110440;-74
2022/08/03 03:16:01;;;;;;;15.30;13.10;;;;;;;18.20;75.37;100642.12;104852;1268;99413;-75
2022/08/03 03:18:32;;;;;;;15.80;13.60;;;;;;;18.18;75.62;100644.56;104728;1267;139260;-75
2022/08/03 03:21:03;;;;;;;16.90;13.40;;;;;;;18.15;75.62;100647.26;105002;1268;95648;-74
2022/08/03 03:23:35;;;;;;;18.20;14.50;;;;;;;18.16;75.67;100644.36;104726;1268;139316;-75
2022/08/03 03:26:04;;;;;;;16.10;13.30;;;;;;;18.17;75.84;100646.63;104713;1270;110127;-74
2022/08/03 03:28:35;;;;;;;15.10;13.20;;;;;;;18.19;75.85;100649.94;104858;1268;99399;-76
2022/08/03 03:31:05;;;;;;;16.70;13.20;;;;;;;18.20;76.00;100644.14;104809;1268;139142;-75
2022/08/03 03:33:34;;;;;;;15.00;13.10;;;;;;;18.21;75.90;100646.39;104675;1270;95253;-76
2022/08/03 03:36:03;;;;;;;16.10;13.80;;;;;;;18.22;75.87;100644.20;104750;1268;139696;-75
2022/08/03 03:38:32;;;;;;;17.90;14.40;;;;;;;18.26;75.84;100646.71;104974;1268;109191;-77
2022/08/03 03:41:00;;;;;;;15.60;13.40;;;;;;;18.30;75.98;100647.71;104771;1268;139985;-77
2022/08/03 03:43:29;;;;;;;15.50;13.70;;;;;;;18.32;76.04;100647.23;104827;1268;108203;-77
2022/08/03 03:45:57;;;;;;;15.70;13.90;;;;;;;18.35;76.20;100645.08;104860;1268;95849;-76
2022/08/03 03:48:25;;;;;;;15.90;13.30;;;;;;;18.38;76.18;100643.34;104568;1269;139382;-76
2022/08/03 03:50:53;;;;;;;16.20;14.00;;;;;;;18.43;76.07;100649.90;104856;1268;109095;-76
2022/08/03 03:53:21;;;;;;;15.30;13.60;;;;;;;18.45;75.99;100650.32;104726;1268;139436;-76
2022/08/03 03:55:52;;;;;;;15.40;13.70;;;;;;;18.48;76.09;100650.36;104764;1270;107672;-76
2022/08/03 03:58:31;;;;;;;16.40;14.50;;;;;;;18.51;76.06;100650.88;104933;1267;95247;-76
2022/08/03 04:01:00;;;;;;;15.40;13.50;;;;;;;18.53;75.93;100651.83;104850;1268;139704;-77
2022/08/03 04:03:28;;;;;;;16.40;13.90;;;;;;;18.59;76.10;100651.36;105010;1268;108992;-76
2022/08/03 04:11:37;;;;;;;16.30;14.10;;;;;;;18.79;76.33;100661.36;104698;1268;139486;-76
2022/08/03 04:14:19;;;;;;;17.40;15.10;;;;;;;18.89;76.28;100662.84;104958;1268;95550;-76
2022/08/03 04:17:00;;;;;;;18.10;14.80;;;;;;;18.97;76.04;100663.63;104806;1268;108754;-76
2022/08/03 04:19:35;;;;;;;19.00;15.10;;;;;;;19.06;75.70;100664.20;104766;1268;99634;-76
2022/08/03 04:22:10;;;;;;;17.80;14.90;;;;;;;19.12;75.98;100665.48;104852;1268;108801;-76
2022/08/03 04:24:49;;;;;;;17.60;15.70;;;;;;;19.15;76.17;100668.02;104863;1268;139779;-75
2022/08/03 04:27:22;;;;;;;18.30;15.40;;;;;;;19.18;76.18;100671.59;104890;1268;95331;-76
2022/08/03 04:29:54;;;;;;;17.10;14.90;;;;;;;19.19;76.18;100678.20;105113;1268;139081;-76
2022/08/03 04:32:25;;;;;;;16.40;14.50;;;;;;;19.21;76.11;100678.80;104936;1268;99333;-76
2022/08/03 04:34:53;;;;;;;15.70;14.10;;;;;;;19.21;75.88;100681.66;105192;1268;108810;-74
2022/08/03 04:37:38;;;;;;;17.70;15.10;;;;;;;19.27;75.59;100686.19;104809;1268;95200;-76
2022/08/03 04:40:12;;;;;;;16.80;14.80;;;;;;;19.40;75.07;100687.27;104845;1268;95138;-77
2022/08/03 04:42:42;;;;;;;16.20;14.50;;;;;;;19.50;74.91;100688.48;104788;1268;139159;-76
2022/08/03 04:45:15;;;;;;;16.60;14.00;;;;;;;19.55;74.96;100691.96;105034;1268;98002;-76
2022/08/03 04:47:44;;;;;;;17.30;15.10;;;;;;;19.55;75.11;100693.21;104936;1268;139615;-77
2022/08/03 04:50:12;;;;;;;17.70;14.90;;;;;;;19.56;74.87;100693.89;104883;1267;95672;-76
2022/08/03 04:53:05;;;;;;;15.70;14.00;;;;;;;19.63;74.49;100693.83;104755;1268;139387;-75
2022/08/03 04:55:36;;;;;;;16.50;14.40;;;;;;;19.71;73.99;100698.74;105160;1268;109267;-76
2022/08/03 04:58:05;;;;;;;15.30;13.70;;;;;;;19.74;74.31;100700.92;104800;1268;99373;-76
2022/08/03 05:00:33;;;;;;;17.00;14.70;;;;;;;19.73;74.60;100700.64;104963;1268;139110;-75
2022/08/03 05:03:01;;;;;;;17.40;15.20;;;;;;;19.73;74.48;100702.95;104572;1270;96917;-77
2022/08/03 05:05:29;;;;;;;168.90;139.30;;;;;;;19.80;74.18;100701.27;104826;1267;139263;-75
2022/08/03 05:08:16;;;;;;;17.40;14.90;;;;;;;19.86;73.95;100699.31;104829;1268;109542;-75
2022/08/03 05:10:56;;;;;;;16.80;14.40;;;;;;;19.87;74.09;100702.50;104873;1268;139541;-76
2022/08/03 05:13:26;;;;;;;16.90;15.10;;;;;;;19.89;74.27;100700.97;104820;1268;108870;-75
2022/08/03 05:15:54;;;;;;;19.50;15.00;;;;;;;19.96;74.25;100705.94;104837;1268;95392;-75
2022/08/03 05:18:22;;;;;;;17.50;14.80;;;;;;;20.03;74.22;100703.89;104662;1268;139188;-76
2022/08/03 05:20:50;;;;;;;17.50;15.20;;;;;;;20.13;73.81;100704.22;104823;1268;110483;-75
2022/08/03 05:23:18;;;;;;;19.50;15.20;;;;;;;20.20;73.07;100707.33;104702;1267;139576;-76
2022/08/03 05:25:46;;;;;;;17.50;15.40;;;;;;;20.25;72.84;100703.25;104814;1268;109628;-76
2022/08/03 05:28:16;;;;;;;19.30;16.00;;;;;;;20.31;72.28;100704.33;104916;1267;95753;-76
2022/08/03 05:30:45;;;;;;;18.10;14.90;;;;;;;20.38;71.86;100706.80;104564;1268;140158;-75
2022/08/03 05:33:13;;;;;;;20.80;15.80;;;;;;;20.43;71.79;100708.81;104722;1268;109762;-75
2022/08/03 05:35:41;;;;;;;18.00;14.90;;;;;;;20.53;71.54;100710.73;104469;1270;140341;-76
2022/08/03 05:38:30;;;;;;;18.10;15.40;;;;;;;20.63;71.19;100707.77;104499;1270;108884;-76
2022/08/03 05:41:05;;;;;;;19.10;15.70;;;;;;;20.70;71.08;100711.85;104643;1268;140160;-76
2022/08/03 05:43:52;;;;;;;18.70;14.80;;;;;;;20.73;71.09;100709.48;104736;1270;95169;-76
2022/08/03 05:46:21;;;;;;;17.80;15.60;;;;;;;20.70;71.36;100712.77;104778;1270;109712;-76
2022/08/03 05:48:50;;;;;;;17.90;15.00;;;;;;;20.65;71.73;100718.65;104664;1270;139917;-77
2022/08/03 05:51:18;;;;;;;15.80;14.10;;;;;;;20.69;71.93;100719.85;104729;1269;109048;-75
2022/08/03 05:53:46;;;;;;;18.30;14.70;;;;;;;20.79;71.40;100717.80;104669;1270;139282;-77
2022/08/03 05:56:14;;;;;;;18.10;14.80;;;;;;;20.86;70.97;100715.37;104855;1270;95855;-79
2022/08/03 05:58:46;;;;;;;16.80;14.70;;;;;;;20.88;70.61;100719.36;104870;1268;109492;-76
2022/08/03 06:01:15;;;;;;;18.00;14.70;;;;;;;20.91;70.39;100721.74;104796;1268;139766;-76
2022/08/03 06:03:45;;;;;;;16.70;14.80;;;;;;;20.91;70.29;100722.94;104817;1268;108887;-76
2022/08/03 06:06:13;;;;;;;18.80;14.60;;;;;;;20.93;70.02;100726.10;104607;1270;139523;-76
2022/08/03 06:08:43;;;;;;;16.60;14.00;;;;;;;20.95;70.27;100726.35;104542;1270;95709;-75
2022/08/03 06:11:12;;;;;;;18.40;14.60;;;;;;;20.97;69.95;100732.73;104806;1268;139308;-75
2022/08/03 06:13:40;;;;;;;18.70;15.10;;;;;;;20.98;69.68;100730.24;104650;1268;99397;-75
2022/08/03 06:16:09;;;;;;;18.30;14.90;;;;;;;21.06;69.53;100728.33;104781;1270;108933;-76
2022/08/03 06:18:37;;;;;;;18.50;15.00;;;;;;;21.14;69.49;100729.81;104656;1268;139734;-75
2022/08/03 06:21:05;;;;;;;17.80;14.00;;;;;;;21.20;69.51;100730.13;104789;1268;95647;-75
2022/08/03 06:23:42;;;;;;;17.70;14.60;;;;;;;21.27;69.38;100735.27;104557;1270;139504;-75
2022/08/03 06:26:23;;;;;;;18.10;14.20;;;;;;;21.35;68.85;100741.96;104788;1270;99482;-73
2022/08/03 06:28:51;;;;;;;19.60;14.60;;;;;;;21.45;68.45;100739.35;104775;1269;107802;-74
2022/08/03 06:31:24;;;;;;;17.20;14.50;;;;;;;21.52;68.51;100739.23;104801;1268;95542;-75
2022/08/03 06:34:02;;;;;;;18.40;14.30;;;;;;;21.60;68.23;100740.14;104888;1270;96014;-75
2022/08/03 06:36:50;;;;;;;19.50;14.80;;;;;;;21.66;67.69;100741.73;104817;1267;140289;-76
2022/08/03 06:39:21;;;;;;;20.90;14.70;;;;;;;21.71;68.54;100738.89;104919;1265;99786;-73
2022/08/03 06:41:52;;;;;;;16.80;14.00;;;;;;;21.78;68.24;100741.66;104782;1268;138334;-74
2022/08/03 06:44:20;;;;;;;19.30;14.30;;;;;;;21.86;67.68;100738.43;104919;1268;95234;-74
2022/08/03 06:46:48;;;;;;;16.90;13.50;;;;;;;21.94;67.59;100736.63;104838;1268;95231;-73
2022/08/03 06:49:16;;;;;;;19.50;14.40;;;;;;;22.00;67.59;100736.50;104671;1268;138901;-74
2022/08/03 06:51:44;;;;;;;17.60;13.90;;;;;;;22.09;67.37;100733.61;104754;1268;99347;-74
2022/08/03 06:54:32;;;;;;;18.10;14.00;;;;;;;22.17;66.30;100733.41;104640;1268;139799;-73
2022/08/03 06:57:00;;;;;;;17.70;13.60;;;;;;;22.25;65.83;100736.27;104760;1268;95638;-72
2022/08/03 06:59:28;;;;;;;16.30;14.00;;;;;;;22.33;65.09;100733.94;104725;1270;139376;-72
2022/08/03 07:02:19;;;;;;;15.10;12.80;;;;;;;22.42;64.74;100733.67;104753;1268;109434;-74
2022/08/03 07:04:48;;;;;;;16.30;14.00;;;;;;;22.57;64.74;100727.39;104761;1268;99505;-75
2022/08/03 07:07:16;;;;;;;18.10;13.90;;;;;;;22.69;65.04;100728.67;104659;1268;138938;-75
2022/08/03 07:09:44;;;;;;;18.20;14.20;;;;;;;22.81;64.78;100732.15;104765;1268;95271;-75
2022/08/03 07:12:27;;;;;;;18.60;13.90;;;;;;;22.93;64.26;100738.55;104638;1268;139191;-74
2022/08/03 07:14:56;;;;;;;18.60;14.60;;;;;;;23.02;64.19;100740.60;104706;1268;109693;-75
2022/08/03 07:17:32;;;;;;;17.00;13.10;;;;;;;23.08;63.85;100740.71;104657;1268;139389;-74
2022/08/03 07:20:02;;;;;;;18.10;13.50;;;;;;;23.15;63.53;100739.14;104718;1268;108702;-73
2022/08/03 07:22:30;;;;;;;16.00;12.90;;;;;;;23.23;63.35;100740.40;104670;1269;95384;-75
2022/08/03 07:24:59;;;;;;;16.20;12.00;;;;;;;23.31;62.65;100738.86;104703;1268;139228;-73
2022/08/03 07:27:28;;;;;;;15.10;10.90;;;;;;;23.37;61.77;100738.01;104783;1268;110139;-74
2022/08/03 07:29:57;;;;;;;15.80;11.50;;;;;;;23.44;61.16;100737.70;104680;1268;139835;-74
2022/08/03 07:32:27;;;;;;;15.00;10.90;;;;;;;23.57;61.32;100737.07;104714;1268;107735;-74
2022/08/03 07:34:55;;;;;;;15.90;11.00;;;;;;;23.76;61.67;100740.55;104658;1268;139380;-74
2022/08/03 07:37:29;;;;;;;16.00;11.90;;;;;;;23.89;61.23;100739.23;104772;1270;95239;-75
2022/08/03 07:39:57;;;;;;;14.70;10.60;;;;;;;23.96;60.59;100738.34;104612;1268;108692;-74
2022/08/03 07:42:29;;;;;;;14.40;10.50;;;;;;;24.05;60.60;100737.10;104743;1268;139806;-74
2022/08/03 07:45:00;;;;;;;13.40;10.90;;;;;;;24.17;59.81;100735.60;104819;1268;109365;-75
2022/08/03 07:47:30;;;;;;;14.50;10.40;;;;;;;24.22;60.32;100737.91;104543;1269;139451;-74
2022/08/03 07:50:05;;;;;;;11.40;8.80;;;;;;;24.31;59.33;100737.96;104838;1268;95341;-75
2022/08/03 07:52:48;;;;;;;12.10;9.10;;;;;;;24.49;59.49;100735.67;104987;1268;109856;-74
2022/08/03 07:55:27;;;;;;;13.20;9.50;;;;;;;24.68;59.45;100735.98;104746;1268;138421;-74
2022/08/03 07:58:01;;;;;;;14.30;9.40;;;;;;;24.85;59.63;100736.81;104841;1268;109076;-74
2022/08/03 08:00:29;;;;;;;13.40;9.00;;;;;;;24.95;59.35;100734.14;104784;1268;138444;-74
2022/08/03 08:02:57;;;;;;;11.70;8.50;;;;;;;25.06;58.46;100730.92;104827;1270;95240;-75
2022/08/03 08:05:25;;;;;;;10.40;6.70;;;;;;;25.17;57.41;100730.94;104763;1268;138466;-74
2022/08/03 08:07:53;;;;;;;10.10;6.20;;;;;;;25.26;56.86;100734.04;104837;1268;99503;-73
2022/08/03 08:10:21;;;;;;;8.40;5.40;;;;;;;25.32;55.41;100734.97;104856;1268;108469;-73
2022/08/03 08:12:49;;;;;;;9.40;6.10;;;;;;;25.33;55.95;100739.23;104716;1268;138477;-72
2022/08/03 08:15:17;;;;;;;9.70;6.60;;;;;;;25.30;55.80;100738.05;104859;1268;96033;-75
2022/08/03 08:17:52;;;;;;;8.60;5.70;;;;;;;25.27;55.83;100740.83;104717;1268;138156;-75
2022/08/03 08:20:22;;;;;;;10.70;5.30;;;;;;;25.19;55.48;100743.12;104810;1268;98357;-75
2022/08/03 08:23:04;;;;;;;8.70;5.50;;;;;;;25.12;55.96;100741.33;104756;1268;139222;-74
2022/08/03 08:25:53;;;;;;;8.00;5.40;;;;;;;25.05;55.51;100746.63;104649;1270;96018;-75
2022/08/03 08:28:22;;;;;;;8.10;4.60;;;;;;;25.02;55.47;100746.70;104812;1268;95462;-76
2022/08/03 08:31:01;;;;;;;8.50;4.60;;;;;;;25.00;55.88;100746.98;104743;1270;138565;-76
2022/08/03 08:33:29;;;;;;;7.80;5.40;;;;;;;24.99;55.91;100747.52;104796;1268;98484;-73
2022/08/03 08:36:17;;;;;;;9.40;5.50;;;;;;;24.94;55.86;100746.20;104691;1268;141681;-74
2022/08/03 08:38:45;;;;;;;8.30;4.90;;;;;;;24.97;55.93;100748.34;104891;1268;95286;-75
2022/08/03 08:41:14;;;;;;;9.60;4.70;;;;;;;25.02;55.42;100743.21;104720;1268;138387;-75
2022/08/03 08:43:42;;;;;;;7.50;4.20;;;;;;;25.10;55.34;100746.19;104803;1268;109671;-73
2022/08/03 08:46:12;;;;;;;6.90;4.40;;;;;;;25.21;54.79;100748.38;104862;1268;99414;-74
2022/08/03 08:48:52;;;;;;;7.10;4.60;;;;;;;25.39;54.60;100747.46;104789;1268;138168;-74
2022/08/03 08:51:26;;;;;;;7.50;4.10;;;;;;;25.54;54.67;100745.21;104864;1268;95900;-74
2022/08/03 08:54:16;;;;;;;7.50;4.20;;;;;;;25.69;52.57;100749.33;104755;1268;138479;-74
2022/08/03 08:56:44;;;;;;;6.60;3.00;;;;;;;25.79;51.66;100751.62;104824;1268;110043;-74
2022/08/03 08:59:12;;;;;;;5.60;3.10;;;;;;;25.83;51.17;100747.61;104730;1268;138272;-73
2022/08/03 09:01:40;;;;;;;5.60;3.10;;;;;;;25.92;49.73;100747.61;104803;1268;107730;-73
2022/08/03 09:04:08;;;;;;;5.90;3.00;;;;;;;26.08;49.82;100745.15;104832;1268;95542;-75
2022/08/03 09:06:36;;;;;;;6.00;3.10;;;;;;;26.29;49.87;100749.52;104901;1268;138353;-74
2022/08/03 09:09:05;;;;;;;6.50;3.30;;;;;;;26.53;48.96;100750.86;104894;1268;109596;-75
2022/08/03 09:11:34;;;;;;;5.30;3.40;;;;;;;26.88;49.28;100746.73;104827;1268;138542;-74
2022/08/03 09:14:20;;;;;;;5.70;2.80;;;;;;;27.42;48.53;100747.94;104845;1268;108836;-75
2022/08/03 09:17:08;;;;;;;6.60;3.50;;;;;;;27.59;47.91;100743.80;104718;1268;138024;-75
2022/08/03 09:20:04;;;;;;;7.70;3.00;;;;;;;27.68;47.91;100746.77;104861;1268;95673;-75
2022/08/03 09:22:32;;;;;;;6.50;3.10;;;;;;;27.79;46.79;100743.80;104752;1268;109777;-75
2022/08/03 09:25:04;;;;;;;6.20;3.10;;;;;;;27.85;46.05;100743.36;104870;1268;138313;-74
2022/08/03 09:27:52;;;;;;;5.30;2.80;;;;;;;27.95;46.94;100741.89;104932;1267;107277;-74
2022/08/03 09:30:20;;;;;;;5.90;2.80;;;;;;;28.19;47.12;100740.02;104724;1268;139501;-75
2022/08/03 09:33:10;;;;;;;5.50;2.50;;;;;;;29.00;44.25;100736.93;104787;1268;95551;-75
2022/08/03 09:35:43;;;;;;;4.60;2.40;;;;;;;30.34;42.47;100739.55;104744;1268;138973;-75
2022/08/03 09:38:23;;;;;;;5.40;2.50;;;;;;;31.92;39.06;100734.13;104689;1270;99335;-73
2022/08/03 09:40:52;;;;;;;5.60;2.70;;;;;;;33.03;37.31;100731.52;104812;1268;107793;-75
2022/08/03 09:43:27;;;;;;;5.40;2.70;;;;;;;34.10;35.84;100733.75;104758;1268;96305;-74
2022/08/03 09:46:06;;;;;;;5.50;2.90;;;;;;;35.15;33.82;100730.41;105374;1268;95231;-75
2022/08/03 09:48:35;;;;;;;4.60;2.20;;;;;;;36.02;31.72;100729.91;104814;1268;138782;-75
2022/08/03 09:51:04;;;;;;;5.70;2.50;;;;;;;36.92;30.88;100732.20;104714;1268;99528;-75
2022/08/03 09:53:52;;;;;;;5.60;2.40;;;;;;;37.45;29.04;100730.52;104737;1268;138565;-74
2022/08/03 09:56:41;;;;;;;5.00;2.30;;;;;;;36.63;29.92;100732.93;104782;1268;95659;-73
2022/08/03 09:59:11;;;;;;;4.70;2.20;;;;;;;36.07;30.56;100730.23;104868;1268;138617;-74
2022/08/03 10:01:40;;;;;;;6.10;2.40;;;;;;;36.75;29.47;100726.27;104794;1270;109513;-73
2022/08/03 10:04:13;;;;;;;5.70;2.50;;;;;;;37.70;28.20;100723.93;104910;1268;97845;-74
2022/08/03 10:07:01;;;;;;;5.00;2.30;;;;;;;38.44;27.37;100727.41;104603;1268;138164;-75
2022/08/03 10:09:29;;;;;;;6.40;2.40;;;;;;;38.44;27.10;100726.15;104761;1268;95976;-74
2022/08/03 10:12:06;;;;;;;5.80;2.40;;;;;;;38.11;26.01;100728.33;104675;1267;138540;-74
2022/08/03 10:14:37;;;;;;;5.30;2.70;;;;;;;37.66;26.48;100724.53;106733;1267;109782;-74
2022/08/03 10:17:05;;;;;;;5.00;2.20;;;;;;;38.40;26.35;100726.16;104730;1267;138579;-72
2022/08/03 10:19:33;;;;;;;4.60;2.20;;;;;;;39.25;25.39;100725.45;104814;1268;108197;-73
2022/08/03 10:22:22;;;;;;;4.80;2.20;;;;;;;39.94;25.19;100720.25;104777;1267;95721;-73
2022/08/03 10:24:58;;;;;;;5.10;2.30;;;;;;;40.41;24.17;100723.88;104722;1267;138050;-74
2022/08/03 10:27:31;;;;;;;4.30;2.30;;;;;;;41.08;23.70;100721.88;104854;1267;110647;-74
2022/08/03 10:30:03;;;;;;;4.80;2.40;;;;;;;41.57;22.76;100716.61;105376;1268;138311;-74
2022/08/03 10:32:42;;;;;;;6.30;2.60;;;;;;;41.67;21.44;100723.29;104764;1268;108863;-73
2022/08/03 10:35:13;;;;;;;6.90;2.30;;;;;;;41.76;21.68;100723.42;105050;1267;138477;-74
2022/08/03 10:37:58;;;;;;;4.80;2.20;;;;;;;42.09;21.36;100720.64;105481;1267;95233;-72
2022/08/03 10:40:30;;;;;;;5.20;2.50;;;;;;;42.56;21.65;100726.56;104906;1267;110146;-72
2022/08/03 10:43:44;;;;;;;5.00;2.40;;;;;;;42.90;20.60;100725.98;104783;1267;138966;-73
2022/08/03 10:46:15;;;;;;;5.30;2.20;;;;;;;43.21;20.77;100725.59;104763;1267;107345;-73
2022/08/03 10:48:45;;;;;;;6.00;2.50;;;;;;;43.29;19.84;100725.98;104801;1267;139328;-73
2022/08/03 10:51:13;;;;;;;4.60;1.90;;;;;;;43.50;20.82;100722.18;104848;1267;95749;-73
2022/08/03 10:53:43;;;;;;;4.70;2.10;;;;;;;43.50;20.00;100718.99;104705;1267;138149;-73
2022/08/03 10:59:38;;;;;;;4.40;2.10;;;;;;;43.53;19.63;100716.98;104682;1267;138693;-73
2022/08/03 11:02:09;;;;;;;4.90;1.90;;;;;;;43.63;19.56;100716.48;104762;1267;95930;-72
2022/08/03 11:04:37;;;;;;;5.30;2.20;;;;;;;42.95;19.89;100717.10;104833;1267;95453;-73
2022/08/03 11:07:23;;;;;;;5.00;2.30;;;;;;;41.77;21.17;100713.21;104680;1267;138062;-73
2022/08/03 11:09:55;;;;;;;4.90;2.20;;;;;;;40.59;22.16;100717.71;104908;1267;99433;-73
2022/08/03 11:12:27;;;;;;;4.90;2.40;;;;;;;39.59;23.33;100717.54;104662;1267;138506;-73
2022/08/03 11:15:06;;;;;;;5.80;2.70;;;;;;;38.66;24.17;100719.40;104803;1267;95125;-73
2022/08/03 11:17:35;;;;;;;5.20;2.70;;;;;;;37.78;25.25;100722.73;104706;1267;138233;-73
2022/08/03 11:20:43;;;;;;;7.90;3.20;;;;;;;36.77;25.83;100711.20;105056;1267;109799;-73
2022/08/03 11:23:12;;;;;;;5.70;2.70;;;;;;;36.02;27.19;100713.71;104728;1267;140538;-73
2022/08/03 11:26:11;;;;;;;5.10;2.90;;;;;;;35.62;27.97;100711.23;104835;1267;108762;-73
2022/08/03 11:28:41;;;;;;;6.00;2.80;;;;;;;35.07;28.57;100711.12;104810;1267;96536;-72
2022/08/03 11:31:32;;;;;;;5.50;3.00;;;;;;;34.64;29.89;100713.77;105083;1265;137913;-73
2022/08/03 11:34:17;;;;;;;5.60;2.90;;;;;;;33.94;31.03;100710.62;104830;1267;109681;-73
2022/08/03 11:37:23;;;;;;;5.10;2.90;;;;;;;33.62;31.07;100703.40;104741;1267;138623;-73
2022/08/03 11:39:58;;;;;;;5.60;2.80;;;;;;;33.27;31.82;100705.15;104741;1270;108955;-73